Terminal Aerodrome Forecast
Issued by NWS

Home | Current Version | Previous Version | Text Only | Print | Product List | Glossary On
Versions: 1 2 3 4 5 6 7 8 9 10 11 12 13
000
FTUS45 KRIW 231849 AAA
TAFWRL
TAF AMD
KWRL 231849Z 2319/2418 34011KT P6SM VCSH SCT020 OVC050
      TEMPO 2319/2321 1SM -SN OVC012
     FM240600 VRB06KT P6SM SCT030 BKN050=

USA.gov is the U.S. government's official web portal to all federal, state and local government web resources and services.